sensor_id;sensor_type;location;lat;lon;timestamp;temperature;humidity
32147;DHT22;32190;49.112;8.598;2023-12-28T00:04:35;11.00;60.00
32147;DHT22;32190;49.112;8.598;2023-12-28T00:10:27;11.00;59.70
32147;DHT22;32190;49.112;8.598;2023-12-28T00:16:17;11.00;59.50
32147;DHT22;32190;49.112;8.598;2023-12-28T00:22:08;11.00;59.60
32147;DHT22;32190;49.112;8.598;2023-12-28T00:27:58;11.00;59.40
32147;DHT22;32190;49.112;8.598;2023-12-28T00:33:49;11.10;59.20
32147;DHT22;32190;49.112;8.598;2023-12-28T00:39:40;11.10;59.20
32147;DHT22;32190;49.112;8.598;2023-12-28T00:45:31;11.10;58.70
32147;DHT22;32190;49.112;8.598;2023-12-28T00:51:21;11.10;58.60
32147;DHT22;32190;49.112;8.598;2023-12-28T00:57:12;11.10;58.60
32147;DHT22;32190;49.112;8.598;2023-12-28T01:03:02;11.10;59.00
32147;DHT22;32190;49.112;8.598;2023-12-28T01:08:54;11.10;58.60
32147;DHT22;32190;49.112;8.598;2023-12-28T01:14:44;11.10;58.40
32147;DHT22;32190;49.112;8.598;2023-12-28T01:20:35;11.10;58.40
32147;DHT22;32190;49.112;8.598;2023-12-28T01:26:25;11.10;58.40
32147;DHT22;32190;49.112;8.598;2023-12-28T01:32:16;11.10;58.30
32147;DHT22;32190;49.112;8.598;2023-12-28T01:38:06;11.10;58.30
32147;DHT22;32190;49.112;8.598;2023-12-28T01:43:57;11.10;58.00
32147;DHT22;32190;49.112;8.598;2023-12-28T01:49:47;11.10;57.80
32147;DHT22;32190;49.112;8.598;2023-12-28T01:55:38;11.20;57.60
32147;DHT22;32190;49.112;8.598;2023-12-28T02:01:28;11.30;57.10
32147;DHT22;32190;49.112;8.598;2023-12-28T02:07:20;11.40;57.40
32147;DHT22;32190;49.112;8.598;2023-12-28T02:13:12;11.40;56.80
32147;DHT22;32190;49.112;8.598;2023-12-28T02:19:17;11.50;56.80
32147;DHT22;32190;49.112;8.598;2023-12-28T02:25:10;11.50;56.20
32147;DHT22;32190;49.112;8.598;2023-12-28T02:31:04;11.60;56.50
32147;DHT22;32190;49.112;8.598;2023-12-28T02:36:56;11.70;55.80
32147;DHT22;32190;49.112;8.598;2023-12-28T02:42:48;11.70;56.40
32147;DHT22;32190;49.112;8.598;2023-12-28T02:48:39;11.80;55.90
32147;DHT22;32190;49.112;8.598;2023-12-28T02:54:29;11.90;56.00
32147;DHT22;32190;49.112;8.598;2023-12-28T03:00:20;12.00;55.60
32147;DHT22;32190;49.112;8.598;2023-12-28T03:06:11;12.00;56.00
32147;DHT22;32190;49.112;8.598;2023-12-28T03:12:01;12.10;55.60
32147;DHT22;32190;49.112;8.598;2023-12-28T03:17:52;12.20;55.00
32147;DHT22;32190;49.112;8.598;2023-12-28T03:23:42;12.20;55.00
32147;DHT22;32190;49.112;8.598;2023-12-28T03:29:33;12.30;55.20
32147;DHT22;32190;49.112;8.598;2023-12-28T03:35:24;12.30;55.10
32147;DHT22;32190;49.112;8.598;2023-12-28T03:41:18;12.30;55.20
32147;DHT22;32190;49.112;8.598;2023-12-28T03:47:09;12.30;55.00
32147;DHT22;32190;49.112;8.598;2023-12-28T03:52:59;12.30;55.60
32147;DHT22;32190;49.112;8.598;2023-12-28T03:58:50;12.30;55.70
32147;DHT22;32190;49.112;8.598;2023-12-28T04:04:41;12.20;55.70
32147;DHT22;32190;49.112;8.598;2023-12-28T04:10:32;12.10;55.80
32147;DHT22;32190;49.112;8.598;2023-12-28T04:16:23;12.10;56.10
32147;DHT22;32190;49.112;8.598;2023-12-28T04:22:14;12.00;56.20
32147;DHT22;32190;49.112;8.598;2023-12-28T04:28:04;12.00;56.50
32147;DHT22;32190;49.112;8.598;2023-12-28T04:33:56;12.00;56.80
32147;DHT22;32190;49.112;8.598;2023-12-28T04:39:46;11.90;56.90
32147;DHT22;32190;49.112;8.598;2023-12-28T04:45:37;11.90;56.90
32147;DHT22;32190;49.112;8.598;2023-12-28T04:51:28;11.90;57.20
32147;DHT22;32190;49.112;8.598;2023-12-28T04:57:21;11.80;57.20
32147;DHT22;32190;49.112;8.598;2023-12-28T05:03:14;11.80;57.30
32147;DHT22;32190;49.112;8.598;2023-12-28T05:09:05;11.80;57.60
32147;DHT22;32190;49.112;8.598;2023-12-28T05:14:56;11.80;57.80
32147;DHT22;32190;49.112;8.598;2023-12-28T05:20:46;11.80;58.00
32147;DHT22;32190;49.112;8.598;2023-12-28T05:26:37;11.80;58.20
32147;DHT22;32190;49.112;8.598;2023-12-28T05:32:27;11.80;58.30
32147;DHT22;32190;49.112;8.598;2023-12-28T05:38:18;11.90;58.60
32147;DHT22;32190;49.112;8.598;2023-12-28T05:44:08;11.90;58.70
32147;DHT22;32190;49.112;8.598;2023-12-28T05:49:59;11.90;58.70
32147;DHT22;32190;49.112;8.598;2023-12-28T05:55:50;11.90;58.80
32147;DHT22;32190;49.112;8.598;2023-12-28T06:01:43;12.00;59.10
32147;DHT22;32190;49.112;8.598;2023-12-28T06:07:34;12.00;59.20
32147;DHT22;32190;49.112;8.598;2023-12-28T06:13:27;12.00;59.20
32147;DHT22;32190;49.112;8.598;2023-12-28T06:19:18;12.00;59.20
32147;DHT22;32190;49.112;8.598;2023-12-28T06:25:11;11.90;59.50
32147;DHT22;32190;49.112;8.598;2023-12-28T06:31:02;11.90;59.40
32147;DHT22;32190;49.112;8.598;2023-12-28T06:36:54;11.90;59.40
32147;DHT22;32190;49.112;8.598;2023-12-28T06:42:45;12.00;59.50
32147;DHT22;32190;49.112;8.598;2023-12-28T06:48:35;12.00;59.60
32147;DHT22;32190;49.112;8.598;2023-12-28T06:54:26;12.00;59.60
32147;DHT22;32190;49.112;8.598;2023-12-28T07:00:17;11.90;59.80
32147;DHT22;32190;49.112;8.598;2023-12-28T07:06:08;11.90;59.90
32147;DHT22;32190;49.112;8.598;2023-12-28T07:11:58;11.90;60.20
32147;DHT22;32190;49.112;8.598;2023-12-28T07:17:49;11.90;60.30
32147;DHT22;32190;49.112;8.598;2023-12-28T07:23:40;11.90;60.40
32147;DHT22;32190;49.112;8.598;2023-12-28T07:29:31;11.90;60.60
32147;DHT22;32190;49.112;8.598;2023-12-28T07:35:21;11.80;60.70
32147;DHT22;32190;49.112;8.598;2023-12-28T07:41:12;11.80;61.00
32147;DHT22;32190;49.112;8.598;2023-12-28T07:47:02;11.80;61.30
32147;DHT22;32190;49.112;8.598;2023-12-28T07:52:53;11.80;61.50
32147;DHT22;32190;49.112;8.598;2023-12-28T07:58:43;11.80;61.50
32147;DHT22;32190;49.112;8.598;2023-12-28T08:04:34;11.80;61.90
32147;DHT22;32190;49.112;8.598;2023-12-28T08:10:24;11.80;62.00
32147;DHT22;32190;49.112;8.598;2023-12-28T08:16:15;11.80;62.30
32147;DHT22;32190;49.112;8.598;2023-12-28T08:22:05;11.70;62.40
32147;DHT22;32190;49.112;8.598;2023-12-28T08:27:56;11.80;62.60
32147;DHT22;32190;49.112;8.598;2023-12-28T08:33:47;11.90;62.80
32147;DHT22;32190;49.112;8.598;2023-12-28T08:39:39;11.90;63.00
32147;DHT22;32190;49.112;8.598;2023-12-28T08:45:29;12.00;63.20
32147;DHT22;32190;49.112;8.598;2023-12-28T08:51:21;12.00;63.30
32147;DHT22;32190;49.112;8.598;2023-12-28T08:57:12;12.00;63.40
32147;DHT22;32190;49.112;8.598;2023-12-28T09:03:03;12.10;63.40
32147;DHT22;32190;49.112;8.598;2023-12-28T09:08:53;12.10;63.40
32147;DHT22;32190;49.112;8.598;2023-12-28T09:14:44;12.20;63.50
32147;DHT22;32190;49.112;8.598;2023-12-28T09:20:35;12.20;63.50
32147;DHT22;32190;49.112;8.598;2023-12-28T09:26:26;12.20;63.60
32147;DHT22;32190;49.112;8.598;2023-12-28T09:32:17;12.30;63.60
32147;DHT22;32190;49.112;8.598;2023-12-28T09:38:08;12.30;63.70
32147;DHT22;32190;49.112;8.598;2023-12-28T09:44:33;12.30;63.60
32147;DHT22;32190;49.112;8.598;2023-12-28T09:51:01;12.30;64.00
32147;DHT22;32190;49.112;8.598;2023-12-28T09:57:18;12.30;63.90
32147;DHT22;32190;49.112;8.598;2023-12-28T10:03:19;12.30;63.60
32147;DHT22;32190;49.112;8.598;2023-12-28T10:09:10;12.30;63.40
32147;DHT22;32190;49.112;8.598;2023-12-28T10:15:01;12.40;63.60
32147;DHT22;32190;49.112;8.598;2023-12-28T10:20:54;12.40;63.60
32147;DHT22;32190;49.112;8.598;2023-12-28T10:26:45;12.40;63.50
32147;DHT22;32190;49.112;8.598;2023-12-28T10:32:42;12.40;63.30
32147;DHT22;32190;49.112;8.598;2023-12-28T10:38:36;12.40;63.50
32147;DHT22;32190;49.112;8.598;2023-12-28T10:44:28;12.40;63.50
32147;DHT22;32190;49.112;8.598;2023-12-28T10:50:22;12.40;63.50
32147;DHT22;32190;49.112;8.598;2023-12-28T10:56:27;12.50;63.60
32147;DHT22;32190;49.112;8.598;2023-12-28T11:02:26;12.50;63.70
32147;DHT22;32190;49.112;8.598;2023-12-28T11:08:19;12.50;63.90
32147;DHT22;32190;49.112;8.598;2023-12-28T11:14:11;12.50;63.70
32147;DHT22;32190;49.112;8.598;2023-12-28T11:20:03;12.50;63.80
32147;DHT22;32190;49.112;8.598;2023-12-28T11:25:55;12.50;63.80
32147;DHT22;32190;49.112;8.598;2023-12-28T11:31:51;12.60;63.90
32147;DHT22;32190;49.112;8.598;2023-12-28T11:37:48;12.50;64.10
32147;DHT22;32190;49.112;8.598;2023-12-28T11:43:41;12.50;64.30
32147;DHT22;32190;49.112;8.598;2023-12-28T11:49:32;12.50;64.20
32147;DHT22;32190;49.112;8.598;2023-12-28T11:55:22;12.50;64.50
32147;DHT22;32190;49.112;8.598;2023-12-28T12:01:14;12.50;64.60
32147;DHT22;32190;49.112;8.598;2023-12-28T12:07:04;12.60;64.80
32147;DHT22;32190;49.112;8.598;2023-12-28T12:12:55;12.60;64.90
32147;DHT22;32190;49.112;8.598;2023-12-28T12:18:46;12.60;64.80
32147;DHT22;32190;49.112;8.598;2023-12-28T12:24:36;12.60;64.90
32147;DHT22;32190;49.112;8.598;2023-12-28T12:30:27;12.70;64.80
32147;DHT22;32190;49.112;8.598;2023-12-28T12:36:18;12.70;64.90
32147;DHT22;32190;49.112;8.598;2023-12-28T12:42:15;12.70;64.90
32147;DHT22;32190;49.112;8.598;2023-12-28T12:48:07;12.60;65.30
32147;DHT22;32190;49.112;8.598;2023-12-28T12:53:58;12.70;64.80
32147;DHT22;32190;49.112;8.598;2023-12-28T12:59:49;12.60;64.70
32147;DHT22;32190;49.112;8.598;2023-12-28T13:05:41;12.60;64.80
32147;DHT22;32190;49.112;8.598;2023-12-28T13:11:34;12.60;64.70
32147;DHT22;32190;49.112;8.598;2023-12-28T13:17:25;12.60;64.90
32147;DHT22;32190;49.112;8.598;2023-12-28T13:23:15;12.60;64.90
32147;DHT22;32190;49.112;8.598;2023-12-28T13:29:06;12.50;64.90
32147;DHT22;32190;49.112;8.598;2023-12-28T13:34:56;12.50;65.00
32147;DHT22;32190;49.112;8.598;2023-12-28T13:40:47;12.50;65.00
32147;DHT22;32190;49.112;8.598;2023-12-28T13:46:40;12.50;65.00
32147;DHT22;32190;49.112;8.598;2023-12-28T13:52:31;12.50;65.00
32147;DHT22;32190;49.112;8.598;2023-12-28T13:58:22;12.60;65.00
32147;DHT22;32190;49.112;8.598;2023-12-28T14:04:12;12.60;65.00
32147;DHT22;32190;49.112;8.598;2023-12-28T14:10:03;12.50;65.00
32147;DHT22;32190;49.112;8.598;2023-12-28T14:15:54;12.50;65.10
32147;DHT22;32190;49.112;8.598;2023-12-28T14:21:44;12.50;65.10
32147;DHT22;32190;49.112;8.598;2023-12-28T14:27:35;12.50;65.30
32147;DHT22;32190;49.112;8.598;2023-12-28T14:33:26;12.50;65.40
32147;DHT22;32190;49.112;8.598;2023-12-28T14:39:17;12.50;65.50
32147;DHT22;32190;49.112;8.598;2023-12-28T14:45:10;12.50;65.70
32147;DHT22;32190;49.112;8.598;2023-12-28T14:51:01;12.60;65.80
32147;DHT22;32190;49.112;8.598;2023-12-28T14:56:51;12.60;65.70
32147;DHT22;32190;49.112;8.598;2023-12-28T15:02:42;12.60;65.70
32147;DHT22;32190;49.112;8.598;2023-12-28T15:08:33;12.70;65.70
32147;DHT22;32190;49.112;8.598;2023-12-28T15:14:24;12.60;65.80
32147;DHT22;32190;49.112;8.598;2023-12-28T15:20:14;12.70;65.80
32147;DHT22;32190;49.112;8.598;2023-12-28T15:26:05;12.70;65.80
32147;DHT22;32190;49.112;8.598;2023-12-28T15:31:57;12.80;65.80
32147;DHT22;32190;49.112;8.598;2023-12-28T15:37:47;12.80;65.80
32147;DHT22;32190;49.112;8.598;2023-12-28T15:43:38;12.80;65.80
32147;DHT22;32190;49.112;8.598;2023-12-28T15:49:28;12.80;65.70
32147;DHT22;32190;49.112;8.598;2023-12-28T15:55:19;12.80;65.70
32147;DHT22;32190;49.112;8.598;2023-12-28T16:01:10;12.80;65.70
32147;DHT22;32190;49.112;8.598;2023-12-28T16:07:01;12.80;65.70
32147;DHT22;32190;49.112;8.598;2023-12-28T16:12:51;12.80;65.70
32147;DHT22;32190;49.112;8.598;2023-12-28T16:18:42;12.80;65.70
32147;DHT22;32190;49.112;8.598;2023-12-28T16:24:32;12.90;65.70
32147;DHT22;32190;49.112;8.598;2023-12-28T16:30:23;12.90;65.60
32147;DHT22;32190;49.112;8.598;2023-12-28T16:36:13;12.90;65.60
32147;DHT22;32190;49.112;8.598;2023-12-28T16:42:04;12.90;65.50
32147;DHT22;32190;49.112;8.598;2023-12-28T16:47:54;12.90;65.60
32147;DHT22;32190;49.112;8.598;2023-12-28T16:53:45;12.90;65.40
32147;DHT22;32190;49.112;8.598;2023-12-28T16:59:35;12.90;65.60
32147;DHT22;32190;49.112;8.598;2023-12-28T17:05:26;12.80;65.60
32147;DHT22;32190;49.112;8.598;2023-12-28T17:11:17;12.80;65.80
32147;DHT22;32190;49.112;8.598;2023-12-28T17:17:08;12.80;65.70
32147;DHT22;32190;49.112;8.598;2023-12-28T17:23:09;12.70;65.60
32147;DHT22;32190;49.112;8.598;2023-12-28T17:29:07;12.70;66.10
32147;DHT22;32190;49.112;8.598;2023-12-28T17:34:58;12.70;66.30
32147;DHT22;32190;49.112;8.598;2023-12-28T17:40:49;12.80;66.10
32147;DHT22;32190;49.112;8.598;2023-12-28T17:46:56;12.70;66.10
32147;DHT22;32190;49.112;8.598;2023-12-28T17:52:46;12.70;66.10
32147;DHT22;32190;49.112;8.598;2023-12-28T17:58:39;12.80;66.00
32147;DHT22;32190;49.112;8.598;2023-12-28T18:04:30;12.80;66.10
32147;DHT22;32190;49.112;8.598;2023-12-28T18:10:21;12.80;65.90
32147;DHT22;32190;49.112;8.598;2023-12-28T18:16:12;12.70;65.80
32147;DHT22;32190;49.112;8.598;2023-12-28T18:22:03;12.70;66.10
32147;DHT22;32190;49.112;8.598;2023-12-28T18:27:54;12.70;66.10
32147;DHT22;32190;49.112;8.598;2023-12-28T18:33:44;12.70;66.10
32147;DHT22;32190;49.112;8.598;2023-12-28T18:39:35;12.70;66.20
32147;DHT22;32190;49.112;8.598;2023-12-28T18:45:27;12.70;66.20
32147;DHT22;32190;49.112;8.598;2023-12-28T18:51:18;12.60;66.20
32147;DHT22;32190;49.112;8.598;2023-12-28T18:57:08;12.60;66.30
32147;DHT22;32190;49.112;8.598;2023-12-28T19:02:59;12.60;66.50
32147;DHT22;32190;49.112;8.598;2023-12-28T19:08:49;12.60;66.70
32147;DHT22;32190;49.112;8.598;2023-12-28T19:14:40;12.60;66.80
32147;DHT22;32190;49.112;8.598;2023-12-28T19:20:31;12.60;66.60
32147;DHT22;32190;49.112;8.598;2023-12-28T19:26:22;12.60;66.60
32147;DHT22;32190;49.112;8.598;2023-12-28T19:32:12;12.60;66.60
32147;DHT22;32190;49.112;8.598;2023-12-28T19:38:03;12.60;66.70
32147;DHT22;32190;49.112;8.598;2023-12-28T19:43:53;12.60;66.90
32147;DHT22;32190;49.112;8.598;2023-12-28T19:49:46;12.60;66.90
32147;DHT22;32190;49.112;8.598;2023-12-28T19:55:36;12.60;66.90
32147;DHT22;32190;49.112;8.598;2023-12-28T20:01:27;12.70;67.00
32147;DHT22;32190;49.112;8.598;2023-12-28T20:07:18;12.70;67.00
32147;DHT22;32190;49.112;8.598;2023-12-28T20:13:08;12.70;66.90
32147;DHT22;32190;49.112;8.598;2023-12-28T20:18:59;12.80;67.00
32147;DHT22;32190;49.112;8.598;2023-12-28T20:24:50;12.80;67.00
32147;DHT22;32190;49.112;8.598;2023-12-28T20:30:40;12.80;66.90
32147;DHT22;32190;49.112;8.598;2023-12-28T20:36:31;12.80;66.80
32147;DHT22;32190;49.112;8.598;2023-12-28T20:42:22;12.80;66.90
32147;DHT22;32190;49.112;8.598;2023-12-28T20:48:13;12.90;66.90
32147;DHT22;32190;49.112;8.598;2023-12-28T20:54:04;12.90;66.90
32147;DHT22;32190;49.112;8.598;2023-12-28T20:59:54;12.90;66.90
32147;DHT22;32190;49.112;8.598;2023-12-28T21:05:45;12.90;66.90
32147;DHT22;32190;49.112;8.598;2023-12-28T21:11:35;13.00;67.00
32147;DHT22;32190;49.112;8.598;2023-12-28T21:17:26;13.00;67.00
32147;DHT22;32190;49.112;8.598;2023-12-28T21:23:17;13.00;66.90
32147;DHT22;32190;49.112;8.598;2023-12-28T21:29:08;13.00;66.80
32147;DHT22;32190;49.112;8.598;2023-12-28T21:34:58;13.00;66.80
32147;DHT22;32190;49.112;8.598;2023-12-28T21:40:49;13.00;66.60
32147;DHT22;32190;49.112;8.598;2023-12-28T21:46:40;13.00;66.50
32147;DHT22;32190;49.112;8.598;2023-12-28T21:52:31;12.90;66.40
32147;DHT22;32190;49.112;8.598;2023-12-28T21:58:22;12.90;66.50
32147;DHT22;32190;49.112;8.598;2023-12-28T22:04:14;12.90;66.50
32147;DHT22;32190;49.112;8.598;2023-12-28T22:10:05;12.90;66.50
32147;DHT22;32190;49.112;8.598;2023-12-28T22:15:57;12.90;66.40
32147;DHT22;32190;49.112;8.598;2023-12-28T22:21:48;12.90;66.50
32147;DHT22;32190;49.112;8.598;2023-12-28T22:27:39;12.90;66.50
32147;DHT22;32190;49.112;8.598;2023-12-28T22:33:30;12.90;66.50
32147;DHT22;32190;49.112;8.598;2023-12-28T22:39:20;12.90;66.40
32147;DHT22;32190;49.112;8.598;2023-12-28T22:45:11;12.90;66.40
32147;DHT22;32190;49.112;8.598;2023-12-28T22:51:02;12.90;66.40
32147;DHT22;32190;49.112;8.598;2023-12-28T22:56:52;12.90;66.40
32147;DHT22;32190;49.112;8.598;2023-12-28T23:02:43;12.90;66.30
32147;DHT22;32190;49.112;8.598;2023-12-28T23:08:34;12.90;66.30
32147;DHT22;32190;49.112;8.598;2023-12-28T23:14:24;12.90;66.40
32147;DHT22;32190;49.112;8.598;2023-12-28T23:20:15;12.90;66.50
32147;DHT22;32190;49.112;8.598;2023-12-28T23:26:06;12.90;66.50
32147;DHT22;32190;49.112;8.598;2023-12-28T23:31:56;12.90;66.50
32147;DHT22;32190;49.112;8.598;2023-12-28T23:37:47;12.90;66.40
32147;DHT22;32190;49.112;8.598;2023-12-28T23:43:38;12.90;66.40
32147;DHT22;32190;49.112;8.598;2023-12-28T23:49:30;12.90;66.50
32147;DHT22;32190;49.112;8.598;2023-12-28T23:55:23;12.90;66.50
